• Join FlightAware (Why Join?)
  • Login
  • US Flag 
02:50AM EDT


 

Airport Tracker/Info


-or-


 

Live Flight TrackerFlight Track Log ✈ N146ST ✈ 09-May-2012 ✈ KTRM - MMSD / SJD

Flight Track Log - Related Links

Times and Time Zones

All times are in EDT time to prevent confusion due to time zone crossing. See the N146ST flight status page for this flight to view local times or setup timezone preferences in your user account.

Time Position Orientation Groundspeed Altitude Reporting Facility
EDT Latitude Longitude Course Direction KTS MPH feet Rate Location/Type
11:51AM 33.5500 -116.1167 140° Southeast 151 174 2,300  Level Southern California TRACON
11:52AM 33.5167 -116.0833 139° Southeast 144 166 3,500 1,200 Climbing Southern California TRACON
11:53AM 33.5053 -116.0714 135° Southeast 147 169 4,000 1,020 Climbing Los Angeles Center
11:54AM 33.4742 -116.0342 139° Southeast 153 176 5,100 1,080 Climbing Los Angeles Center
11:55AM 33.4406 -115.9992 147° Southeast 164 189 6,200 1,200 Climbing Los Angeles Center
11:56AM 33.4031 -115.9694 145° Southeast 164 189 7,600 1,200 Climbing Los Angeles Center
11:57AM 33.3675 -115.9397 141° Southeast 159 183 8,700 1,020 Climbing Los Angeles Center
11:58AM 33.3342 -115.9075 146° Southeast 159 183 9,700 960 Climbing Los Angeles Center
11:59AM 33.2944 -115.8753 144° Southeast 159 183 10,700 960 Climbing Los Angeles Center
12:00PM 33.2547 -115.8406 144° Southeast 171 197 11,700 1,140 Climbing Los Angeles Center
12:01PM 33.2150 -115.8058 146° Southeast 176 203 13,000 1,200 Climbing Los Angeles Center
12:02PM 33.1750 -115.7739 140° Southeast 176 203 14,100 960 Climbing Los Angeles Center
12:03PM 33.1353 -115.7342 145° Southeast 176 203 15,000 1,020 Climbing Los Angeles Center
12:04PM 33.0914 -115.6972 152° Southeast 182 209 16,200 1,200 Climbing Los Angeles Center
12:05PM 33.0369 -115.6628 158° South 187 215 17,700 1,260 Climbing Los Angeles Center
12:06PM 32.9911 -115.6408 153° Southeast 187 215 19,000 1,200 Climbing Los Angeles Center
12:07PM 32.9428 -115.6114 156° South 182 209 20,100 1,080 Climbing Los Angeles Center
12:08PM 32.8928 -115.5844 156° South 193 222 21,200 960 Climbing Los Angeles Center
12:09PM 32.8383 -115.5550 157° South 203 234 22,100 900 Climbing Los Angeles Center
12:10PM 32.7861 -115.5283 147° Southeast 209 241 23,100 900 Climbing Los Angeles Center
12:11PM 32.7378 -115.4917 113° Southeast 209 241 24,000 900 Climbing Los Angeles Center
12:12PM 32.7186 -115.4372 118° Southeast 187 215 24,900 840 Climbing Los Angeles Center
12:13PM 32.6933 -115.3808 143° Southeast 181 208 25,700 780 Climbing Los Angeles Center
12:20PM 32.3136 -115.0402 154° Southeast  Level FlightAware Approximate
12:21PM 32.2503 -115.0031 154° Southeast  Level FlightAware Approximate
12:22PM 32.1869 -114.9661 154° Southeast  Level FlightAware Approximate
12:23PM 32.1235 -114.9291 154° Southeast  Level FlightAware Approximate
12:24PM 32.0601 -114.8922 154° Southeast  Level FlightAware Approximate
12:25PM 31.9967 -114.8553 154° Southeast  Level FlightAware Approximate
12:26PM 31.9333 -114.8185 154° Southeast  Level FlightAware Approximate
12:27PM 31.8699 -114.7817 154° Southeast  Level FlightAware Approximate
12:28PM 31.8065 -114.7449 154° Southeast  Level FlightAware Approximate
12:29PM 31.7431 -114.7083 154° Southeast  Level FlightAware Approximate
12:30PM 31.6796 -114.6716 154° Southeast  Level FlightAware Approximate
12:31PM 31.6162 -114.6351 154° Southeast  Level FlightAware Approximate
12:32PM 31.5527 -114.5985 154° Southeast  Level FlightAware Approximate
12:33PM 31.4893 -114.5620 154° Southeast  Level FlightAware Approximate
12:34PM 31.4258 -114.5256 154° Southeast  Level FlightAware Approximate
12:35PM 31.3623 -114.4892 154° Southeast  Level FlightAware Approximate
12:36PM 31.2988 -114.4529 158° South  Level FlightAware Approximate
12:37PM 31.2339 -114.4217 154° Southeast  Level FlightAware Approximate
12:38PM 31.1704 -114.3854 154° Southeast  Level FlightAware Approximate
12:39PM 31.1069 -114.3491 154° Southeast  Level FlightAware Approximate
12:40PM 31.0434 -114.3129 154° Southeast  Level FlightAware Approximate
12:41PM 30.9799 -114.2767 154° Southeast  Level FlightAware Approximate
12:42PM 30.9163 -114.2406 154° Southeast  Level FlightAware Approximate
12:43PM 30.8528 -114.2046 154° Southeast  Level FlightAware Approximate
12:44PM 30.7892 -114.1685 154° Southeast  Level FlightAware Approximate
12:45PM 30.7257 -114.1326 154° Southeast  Level FlightAware Approximate
12:46PM 30.6621 -114.0966 154° Southeast  Level FlightAware Approximate
12:47PM 30.5985 -114.0608 154° Southeast  Level FlightAware Approximate
12:48PM 30.5350 -114.0249 154° Southeast  Level FlightAware Approximate
12:49PM 30.4713 -113.9891 154° Southeast  Level FlightAware Approximate
12:50PM 30.4077 -113.9534 154° Southeast  Level FlightAware Approximate
12:51PM 30.3441 -113.9177 154° Southeast  Level FlightAware Approximate
12:52PM 30.2805 -113.8820 154° Southeast  Level FlightAware Approximate
12:53PM 30.2169 -113.8465 154° Southeast  Level FlightAware Approximate
12:54PM 30.1532 -113.8109 155° Southeast  Level FlightAware Approximate
12:55PM 30.0893 -113.7760 152° Southeast  Level FlightAware Approximate
12:56PM 30.0270 -113.7375 152° Southeast  Level FlightAware Approximate
12:57PM 29.9647 -113.6990 152° Southeast  Level FlightAware Approximate
12:58PM 29.9023 -113.6605 152° Southeast  Level FlightAware Approximate
12:59PM 29.8400 -113.6220 152° Southeast  Level FlightAware Approximate
01:00PM 29.7777 -113.5837 170° South  Level FlightAware Approximate
01:01PM 29.7098 -113.5696 152° Southeast  Level FlightAware Approximate
01:02PM 29.6476 -113.5309 152° Southeast  Level FlightAware Approximate
01:03PM 29.5854 -113.4923 156° South  Level FlightAware Approximate
01:04PM 29.5207 -113.4598 152° Southeast  Level FlightAware Approximate
01:05PM 29.4585 -113.4212 152° Southeast  Level FlightAware Approximate
01:06PM 29.3963 -113.3826 152° Southeast  Level FlightAware Approximate
01:07PM 29.3341 -113.3441 152° Southeast  Level FlightAware Approximate
01:08PM 29.2719 -113.3056 152° Southeast  Level FlightAware Approximate
01:09PM 29.2097 -113.2672 152° Southeast  Level FlightAware Approximate
01:10PM 29.1474 -113.2288 152° Southeast  Level FlightAware Approximate
01:11PM 29.0852 -113.1903 152° Southeast  Level FlightAware Approximate
01:12PM 29.0230 -113.1519 152° Southeast  Level FlightAware Approximate
01:13PM 28.9608 -113.1136 152° Southeast  Level FlightAware Approximate
01:14PM 28.8986 -113.0753 152° Southeast  Level FlightAware Approximate
01:15PM 28.8363 -113.0370 152° Southeast  Level FlightAware Approximate
01:16PM 28.7741 -112.9988 152° Southeast  Level FlightAware Approximate
01:17PM 28.7118 -112.9607 152° Southeast  Level FlightAware Approximate
01:18PM 28.6495 -112.9226 152° Southeast  Level FlightAware Approximate
01:19PM 28.5873 -112.8845 152° Southeast  Level FlightAware Approximate
01:20PM 28.5250 -112.8465 152° Southeast  Level FlightAware Approximate
01:21PM 28.4627 -112.8085 152° Southeast  Level FlightAware Approximate
01:22PM 28.4004 -112.7705 152° Southeast  Level FlightAware Approximate
01:23PM 28.3381 -112.7327 152° Southeast  Level FlightAware Approximate
01:24PM 28.2757 -112.6948 152° Southeast  Level FlightAware Approximate
01:25PM 28.2134 -112.6570 152° Southeast  Level FlightAware Approximate
01:26PM 28.1510 -112.6192 152° Southeast  Level FlightAware Approximate
01:27PM 28.0887 -112.5815 152° Southeast  Level FlightAware Approximate
01:28PM 28.0263 -112.5439 152° Southeast  Level FlightAware Approximate
01:29PM 27.9639 -112.5062 152° Southeast  Level FlightAware Approximate
01:30PM 27.9015 -112.4686 152° Southeast  Level FlightAware Approximate
01:31PM 27.8391 -112.4311 152° Southeast  Level FlightAware Approximate
01:32PM 27.7767 -112.3936 152° Southeast  Level FlightAware Approximate
01:33PM 27.7142 -112.3561 152° Southeast  Level FlightAware Approximate
01:34PM 27.6518 -112.3187 152° Southeast  Level FlightAware Approximate
01:35PM 27.5893 -112.2814 152° Southeast  Level FlightAware Approximate
01:36PM 27.5269 -112.2440 152° Southeast  Level FlightAware Approximate
01:37PM 27.4644 -112.2067 152° Southeast  Level FlightAware Approximate
01:38PM 27.4019 -112.1695 152° Southeast  Level FlightAware Approximate
01:39PM 27.3395 -112.1322 152° Southeast  Level FlightAware Approximate
01:40PM 27.2771 -112.0949 152° Southeast  Level FlightAware Approximate
01:41PM 27.2146 -112.0576 152° Southeast  Level FlightAware Approximate
01:42PM 27.1523 -112.0202 152° Southeast  Level FlightAware Approximate
01:43PM 27.0899 -111.9829 152° Southeast  Level FlightAware Approximate
01:44PM 27.0275 -111.9456 152° Southeast  Level FlightAware Approximate
01:45PM 26.9651 -111.9083 152° Southeast  Level FlightAware Approximate
01:46PM 26.9027 -111.8711 152° Southeast  Level FlightAware Approximate
01:47PM 26.8403 -111.8339 152° Southeast  Level FlightAware Approximate
01:48PM 26.7778 -111.7968 152° Southeast  Level FlightAware Approximate
01:49PM 26.7154 -111.7597 152° Southeast  Level FlightAware Approximate
01:50PM 26.6530 -111.7226 152° Southeast  Level FlightAware Approximate
01:51PM 26.5905 -111.6856 152° Southeast  Level FlightAware Approximate
01:52PM 26.5280 -111.6486 152° Southeast  Level FlightAware Approximate
01:53PM 26.4655 -111.6117 152° Southeast  Level FlightAware Approximate
01:54PM 26.4030 -111.5748 152° Southeast  Level FlightAware Approximate
01:55PM 26.3405 -111.5379 152° Southeast  Level FlightAware Approximate
01:56PM 26.2780 -111.5011 152° Southeast  Level FlightAware Approximate
01:57PM 26.2155 -111.4643 152° Southeast  Level FlightAware Approximate
01:58PM 26.1530 -111.4276 152° Southeast  Level FlightAware Approximate
01:59PM 26.0905 -111.3909 152° Southeast  Level FlightAware Approximate
02:00PM 26.0279 -111.3542 162° South  Level FlightAware Approximate
02:01PM 25.9608 -111.3299 152° Southeast  Level FlightAware Approximate
02:02PM 25.8984 -111.2931 152° Southeast  Level FlightAware Approximate
02:03PM 25.8360 -111.2563 152° Southeast  Level FlightAware Approximate
02:04PM 25.7735 -111.2195 152° Southeast  Level FlightAware Approximate
02:05PM 25.7111 -111.1828 152° Southeast  Level FlightAware Approximate
02:06PM 25.6486 -111.1461 152° Southeast  Level FlightAware Approximate
02:07PM 25.5861 -111.1094 152° Southeast  Level FlightAware Approximate
02:08PM 25.5236 -111.0728 152° Southeast  Level FlightAware Approximate
02:09PM 25.4611 -111.0362 152° Southeast  Level FlightAware Approximate
02:10PM 25.3986 -110.9997 152° Southeast  Level FlightAware Approximate
02:11PM 25.3361 -110.9632 152° Southeast  Level FlightAware Approximate
02:12PM 25.2736 -110.9267 152° Southeast  Level FlightAware Approximate
02:13PM 25.2110 -110.8903 152° Southeast  Level FlightAware Approximate
02:14PM 25.1485 -110.8539 152° Southeast  Level FlightAware Approximate
02:15PM 25.0859 -110.8176 152° Southeast  Level FlightAware Approximate
02:16PM 25.0234 -110.7812 152° Southeast  Level FlightAware Approximate
02:17PM 24.9608 -110.7450 152° Southeast  Level FlightAware Approximate
02:18PM 24.8982 -110.7087 152° Southeast  Level FlightAware Approximate
02:19PM 24.8356 -110.6725 152° Southeast  Level FlightAware Approximate
02:20PM 24.7730 -110.6364 152° Southeast  Level FlightAware Approximate
02:21PM 24.7104 -110.6002 157° South  Level FlightAware Approximate
02:22PM 24.6455 -110.5701 152° Southeast  Level FlightAware Approximate
02:23PM 24.5830 -110.5338 149° Southeast  Level FlightAware Approximate
02:24PM 24.5226 -110.4936 152° Southeast  Level FlightAware Approximate
02:25PM 24.4600 -110.4575 152° Southeast  Level FlightAware Approximate
02:26PM 24.3974 -110.4215 152° Southeast  Level FlightAware Approximate
02:27PM 24.3347 -110.3855 149° Southeast  Level FlightAware Approximate
02:28PM 24.2744 -110.3452 153° Southeast  Level FlightAware Approximate
02:29PM 24.2117 -110.3096 153° Southeast  Level FlightAware Approximate
02:30PM 24.1489 -110.2740 153° Southeast  Level FlightAware Approximate
02:31PM 24.0861 -110.2384 157° South  Level FlightAware Approximate
02:32PM 24.0212 -110.2088 152° Southeast  Level FlightAware Approximate
02:33PM 23.9586 -110.1729 152° Southeast  Level FlightAware Approximate
02:34PM 23.8960 -110.1370 157° South  Level FlightAware Approximate
02:35PM 23.8312 -110.1062 152° Southeast  Level FlightAware Approximate
02:36PM 23.7688 -110.0699 152° Southeast  Level FlightAware Approximate
02:37PM 23.7064 -110.0336 154° Southeast  Level FlightAware Approximate
02:38PM 23.6433 -110.0002 152° Southeast  Level FlightAware Approximate
02:39PM 23.5811 -109.9636 152° Southeast  Level FlightAware Approximate
02:40PM 23.5189 -109.9270 160° South  Level FlightAware Approximate
02:41PM 23.4526 -109.9009 150° Southeast  Level FlightAware Approximate
02:42PM 23.3917 -109.8618 146° Southeast  Level FlightAware Approximate
02:43PM 23.3343 -109.8204 157° South  Level FlightAware Approximate
02:44PM 23.2698 -109.7899 147° Southeast  Level FlightAware Approximate
02:45PM 23.2109 -109.7477 157° South  Level FlightAware Approximate
02:46PM 23.1457 -109.7182 173° South  Level Estimated
02:47PM 23.1333 -109.7167 348° North  Level FlightAware Approximate
02:48PM 23.2024 -109.7330 168° South  Level Estimated
02:49PM 23.1333 -109.7167 348° North  Level FlightAware Approximate
02:50PM 23.2024 -109.7330 168° South  Level Estimated
02:51PM 23.1333 -109.7167 348° North  Level FlightAware Approximate
02:52PM 23.2024 -109.7330 168° South  Level Estimated
02:53PM 23.1333 -109.7167 348° North  Level FlightAware Approximate
02:54PM 23.2024 -109.7330 168° South  Level Estimated
02:55PM 23.1333 -109.7167 348° North  Level FlightAware Approximate
02:56PM 23.2024 -109.7330 168° South  Level Estimated
02:57PM 23.1333 -109.7167 168° South  Level FlightAware Approximate